sensor_id;sensor_type;location;lat;lon;timestamp;pressure;altitude;pressure_sealevel;temperature;humidity
11011;BME280;5558;42.702;23.178;2022-11-30T00:00:08;93821.09;;;2.55;100.00
11011;BME280;5558;42.702;23.178;2022-11-30T00:02:34;93819.41;;;2.67;100.00
11011;BME280;5558;42.702;23.178;2022-11-30T00:05:01;93817.53;;;2.74;100.00
11011;BME280;5558;42.702;23.178;2022-11-30T00:10:41;93815.50;;;2.52;100.00
11011;BME280;5558;42.702;23.178;2022-11-30T00:13:09;93811.47;;;2.49;100.00
11011;BME280;5558;42.702;23.178;2022-11-30T00:15:38;93818.31;;;2.50;100.00
11011;BME280;5558;42.702;23.178;2022-11-30T00:18:05;93777.78;;;2.16;100.00
11011;BME280;5558;42.702;23.178;2022-11-30T00:20:32;93827.91;;;2.56;100.00
11011;BME280;5558;42.702;23.178;2022-11-30T00:26:16;93822.84;;;2.61;100.00
11011;BME280;5558;42.702;23.178;2022-11-30T00:28:43;93824.41;;;2.69;100.00
11011;BME280;5558;42.702;23.178;2022-11-30T00:34:26;93816.59;;;2.69;100.00
11011;BME280;5558;42.702;23.178;2022-11-30T00:36:53;93817.25;;;2.58;100.00
11011;BME280;5558;42.702;23.178;2022-11-30T00:39:20;93822.03;;;2.61;100.00
11011;BME280;5558;42.702;23.178;2022-11-30T00:41:48;93822.09;;;2.54;100.00
11011;BME280;5558;42.702;23.178;2022-11-30T00:44:14;93823.94;;;2.54;100.00
11011;BME280;5558;42.702;23.178;2022-11-30T00:46:41;93785.50;;;2.29;100.00
11011;BME280;5558;42.702;23.178;2022-11-30T00:49:08;93822.78;;;2.43;100.00
11011;BME280;5558;42.702;23.178;2022-11-30T00:51:36;93818.00;;;2.33;100.00
11011;BME280;5558;42.702;23.178;2022-11-30T00:54:03;93814.00;;;2.31;100.00
11011;BME280;5558;42.702;23.178;2022-11-30T00:56:30;93813.47;;;2.22;100.00
11011;BME280;5558;42.702;23.178;2022-11-30T00:59:27;93820.88;;;2.25;100.00
11011;BME280;5558;42.702;23.178;2022-11-30T01:01:54;93826.09;;;2.25;100.00
11011;BME280;5558;42.702;23.178;2022-11-30T01:04:21;93825.53;;;2.17;100.00
11011;BME280;5558;42.702;23.178;2022-11-30T01:09:53;93830.16;;;2.21;100.00
11011;BME280;5558;42.702;23.178;2022-11-30T01:12:19;93826.69;;;2.27;100.00
11011;BME280;5558;42.702;23.178;2022-11-30T01:14:46;93828.69;;;2.25;100.00
11011;BME280;5558;42.702;23.178;2022-11-30T01:17:13;93831.22;;;2.38;100.00
11011;BME280;5558;42.702;23.178;2022-11-30T01:19:39;93823.59;;;2.43;100.00
11011;BME280;5558;42.702;23.178;2022-11-30T01:22:07;93827.41;;;2.41;100.00
11011;BME280;5558;42.702;23.178;2022-11-30T01:24:34;93822.41;;;2.39;100.00
11011;BME280;5558;42.702;23.178;2022-11-30T01:27:01;93758.34;;;2.06;100.00
11011;BME280;5558;42.702;23.178;2022-11-30T01:29:28;93818.94;;;2.45;100.00
11011;BME280;5558;42.702;23.178;2022-11-30T01:31:54;93821.50;;;2.52;100.00
11011;BME280;5558;42.702;23.178;2022-11-30T01:34:27;93806.13;;;2.37;100.00
11011;BME280;5558;42.702;23.178;2022-11-30T01:36:54;93818.53;;;2.48;100.00
11011;BME280;5558;42.702;23.178;2022-11-30T01:39:22;93809.84;;;2.55;100.00
11011;BME280;5558;42.702;23.178;2022-11-30T01:41:48;93810.59;;;2.62;100.00
11011;BME280;5558;42.702;23.178;2022-11-30T01:44:48;93803.59;;;2.56;100.00
11011;BME280;5558;42.702;23.178;2022-11-30T01:47:17;93804.56;;;2.61;100.00
11011;BME280;5558;42.702;23.178;2022-11-30T01:50:08;93803.41;;;2.57;100.00
11011;BME280;5558;42.702;23.178;2022-11-30T01:52:37;93808.41;;;2.59;100.00
11011;BME280;5558;42.702;23.178;2022-11-30T01:55:15;93811.34;;;2.69;100.00
11011;BME280;5558;42.702;23.178;2022-11-30T01:58:15;93804.88;;;2.71;100.00
11011;BME280;5558;42.702;23.178;2022-11-30T02:00:46;93804.31;;;2.94;100.00
11011;BME280;5558;42.702;23.178;2022-11-30T02:03:16;93802.59;;;3.06;100.00
11011;BME280;5558;42.702;23.178;2022-11-30T02:08:53;93792.78;;;2.77;100.00
11011;BME280;5558;42.702;23.178;2022-11-30T02:11:22;93784.00;;;2.96;100.00
11011;BME280;5558;42.702;23.178;2022-11-30T02:17:13;93786.63;;;3.14;100.00
11011;BME280;5558;42.702;23.178;2022-11-30T02:26:23;93791.88;;;3.32;100.00
11011;BME280;5558;42.702;23.178;2022-11-30T02:29:05;93784.41;;;3.35;100.00
11011;BME280;5558;42.702;23.178;2022-11-30T02:31:40;93782.72;;;3.41;100.00
11011;BME280;5558;42.702;23.178;2022-11-30T02:34:11;93786.53;;;3.45;100.00
11011;BME280;5558;42.702;23.178;2022-11-30T02:36:39;93776.47;;;3.42;100.00
11011;BME280;5558;42.702;23.178;2022-11-30T02:39:08;93776.25;;;3.43;100.00
11011;BME280;5558;42.702;23.178;2022-11-30T02:41:36;93773.78;;;3.30;100.00
11011;BME280;5558;42.702;23.178;2022-11-30T02:44:06;93771.09;;;3.37;100.00
11011;BME280;5558;42.702;23.178;2022-11-30T02:46:42;93757.28;;;3.30;100.00
11011;BME280;5558;42.702;23.178;2022-11-30T02:49:16;93776.47;;;3.42;100.00
11011;BME280;5558;42.702;23.178;2022-11-30T02:52:06;93776.22;;;3.50;100.00
11011;BME280;5558;42.702;23.178;2022-11-30T02:54:35;93775.41;;;3.49;100.00
11011;BME280;5558;42.702;23.178;2022-11-30T02:57:02;93764.88;;;3.38;100.00
11011;BME280;5558;42.702;23.178;2022-11-30T02:59:30;93766.81;;;3.42;100.00
11011;BME280;5558;42.702;23.178;2022-11-30T03:01:57;93772.63;;;3.44;100.00
11011;BME280;5558;42.702;23.178;2022-11-30T03:04:24;93778.81;;;3.50;100.00
11011;BME280;5558;42.702;23.178;2022-11-30T03:07:09;93777.66;;;3.46;100.00
11011;BME280;5558;42.702;23.178;2022-11-30T03:09:35;93780.34;;;3.57;100.00
11011;BME280;5558;42.702;23.178;2022-11-30T03:12:02;93772.53;;;3.69;100.00
11011;BME280;5558;42.702;23.178;2022-11-30T03:14:30;93776.38;;;3.85;100.00
11011;BME280;5558;42.702;23.178;2022-11-30T03:16:57;93764.56;;;3.46;100.00
11011;BME280;5558;42.702;23.178;2022-11-30T03:19:24;93770.03;;;3.44;100.00
11011;BME280;5558;42.702;23.178;2022-11-30T03:21:50;93784.69;;;3.27;100.00
11011;BME280;5558;42.702;23.178;2022-11-30T03:24:17;93777.44;;;3.29;100.00
11011;BME280;5558;42.702;23.178;2022-11-30T03:29:55;93780.88;;;3.05;100.00
11011;BME280;5558;42.702;23.178;2022-11-30T03:32:22;93778.63;;;3.09;100.00
11011;BME280;5558;42.702;23.178;2022-11-30T03:38:08;93781.38;;;2.96;100.00
11011;BME280;5558;42.702;23.178;2022-11-30T03:40:35;93788.56;;;3.00;100.00
11011;BME280;5558;42.702;23.178;2022-11-30T03:43:02;93782.16;;;2.96;100.00
11011;BME280;5558;42.702;23.178;2022-11-30T03:45:30;93788.03;;;2.92;100.00
11011;BME280;5558;42.702;23.178;2022-11-30T03:47:57;93799.56;;;2.84;100.00
11011;BME280;5558;42.702;23.178;2022-11-30T03:50:23;93802.28;;;2.96;100.00
11011;BME280;5558;42.702;23.178;2022-11-30T03:52:50;93812.00;;;2.89;100.00
11011;BME280;5558;42.702;23.178;2022-11-30T03:55:17;93806.28;;;2.98;100.00
11011;BME280;5558;42.702;23.178;2022-11-30T03:57:44;93803.25;;;2.77;100.00
11011;BME280;5558;42.702;23.178;2022-11-30T04:00:11;93807.72;;;2.70;100.00
11011;BME280;5558;42.702;23.178;2022-11-30T04:02:40;93810.06;;;2.78;100.00
11011;BME280;5558;42.702;23.178;2022-11-30T04:05:07;93807.13;;;2.68;100.00
11011;BME280;5558;42.702;23.178;2022-11-30T04:07:34;93814.72;;;3.00;100.00
11011;BME280;5558;42.702;23.178;2022-11-30T04:10:01;93824.56;;;3.23;100.00
11011;BME280;5558;42.702;23.178;2022-11-30T04:12:55;93823.91;;;3.03;100.00
11011;BME280;5558;42.702;23.178;2022-11-30T04:15:23;93822.25;;;3.33;100.00
11011;BME280;5558;42.702;23.178;2022-11-30T04:17:51;93815.84;;;3.47;100.00
11011;BME280;5558;42.702;23.178;2022-11-30T04:20:18;93824.50;;;3.65;100.00
11011;BME280;5558;42.702;23.178;2022-11-30T04:23:23;93833.75;;;3.86;100.00
11011;BME280;5558;42.702;23.178;2022-11-30T04:25:50;93821.75;;;3.97;100.00
11011;BME280;5558;42.702;23.178;2022-11-30T04:28:17;93824.25;;;3.73;100.00
11011;BME280;5558;42.702;23.178;2022-11-30T04:30:45;93827.72;;;3.67;100.00
11011;BME280;5558;42.702;23.178;2022-11-30T04:33:14;93823.66;;;3.53;100.00
11011;BME280;5558;42.702;23.178;2022-11-30T04:35:42;93799.91;;;3.55;100.00
11011;BME280;5558;42.702;23.178;2022-11-30T04:38:10;93821.84;;;3.72;100.00
11011;BME280;5558;42.702;23.178;2022-11-30T04:40:38;93811.88;;;3.62;100.00
11011;BME280;5558;42.702;23.178;2022-11-30T04:43:05;93817.78;;;3.58;100.00
11011;BME280;5558;42.702;23.178;2022-11-30T04:45:32;93820.38;;;3.58;100.00
11011;BME280;5558;42.702;23.178;2022-11-30T04:47:59;93818.31;;;3.42;100.00
11011;BME280;5558;42.702;23.178;2022-11-30T04:50:27;93812.47;;;3.46;100.00
11011;BME280;5558;42.702;23.178;2022-11-30T04:52:54;93815.63;;;3.48;100.00
11011;BME280;5558;42.702;23.178;2022-11-30T04:55:21;93807.72;;;3.37;100.00
11011;BME280;5558;42.702;23.178;2022-11-30T04:57:47;93799.19;;;3.23;100.00
11011;BME280;5558;42.702;23.178;2022-11-30T05:00:16;93814.88;;;3.23;100.00
11011;BME280;5558;42.702;23.178;2022-11-30T05:02:54;93828.25;;;3.15;100.00
11011;BME280;5558;42.702;23.178;2022-11-30T05:05:21;93827.19;;;3.23;100.00
11011;BME280;5558;42.702;23.178;2022-11-30T05:07:49;93828.63;;;3.19;100.00
11011;BME280;5558;42.702;23.178;2022-11-30T05:10:17;93829.81;;;3.23;100.00
11011;BME280;5558;42.702;23.178;2022-11-30T05:13:21;93833.28;;;3.35;100.00
11011;BME280;5558;42.702;23.178;2022-11-30T05:15:47;93834.31;;;3.34;100.00
11011;BME280;5558;42.702;23.178;2022-11-30T05:18:14;93842.97;;;3.34;100.00
11011;BME280;5558;42.702;23.178;2022-11-30T05:24:00;93842.91;;;3.41;100.00
11011;BME280;5558;42.702;23.178;2022-11-30T05:26:27;93845.59;;;3.34;100.00
11011;BME280;5558;42.702;23.178;2022-11-30T05:28:54;93846.94;;;3.37;100.00
11011;BME280;5558;42.702;23.178;2022-11-30T05:31:21;93830.66;;;3.17;100.00
11011;BME280;5558;42.702;23.178;2022-11-30T05:33:49;93848.19;;;3.10;100.00
11011;BME280;5558;42.702;23.178;2022-11-30T05:36:16;93836.91;;;3.16;100.00
11011;BME280;5558;42.702;23.178;2022-11-30T05:38:43;93846.13;;;3.18;100.00
11011;BME280;5558;42.702;23.178;2022-11-30T05:41:11;93847.97;;;3.11;100.00
11011;BME280;5558;42.702;23.178;2022-11-30T05:43:41;93843.41;;;3.07;100.00
11011;BME280;5558;42.702;23.178;2022-11-30T05:46:08;93841.22;;;3.04;100.00
11011;BME280;5558;42.702;23.178;2022-11-30T05:48:35;93834.06;;;2.93;100.00
11011;BME280;5558;42.702;23.178;2022-11-30T05:51:06;93849.75;;;2.93;100.00
11011;BME280;5558;42.702;23.178;2022-11-30T05:56:42;93852.50;;;2.73;100.00
11011;BME280;5558;42.702;23.178;2022-11-30T05:59:15;93859.31;;;2.74;100.00
11011;BME280;5558;42.702;23.178;2022-11-30T06:01:42;93855.34;;;2.72;100.00
11011;BME280;5558;42.702;23.178;2022-11-30T06:04:09;93862.09;;;2.55;100.00
11011;BME280;5558;42.702;23.178;2022-11-30T06:06:35;93862.13;;;2.48;100.00
11011;BME280;5558;42.702;23.178;2022-11-30T06:09:02;93866.84;;;2.33;100.00
11011;BME280;5558;42.702;23.178;2022-11-30T06:11:29;93881.22;;;2.42;100.00
11011;BME280;5558;42.702;23.178;2022-11-30T06:13:57;93874.63;;;2.39;100.00
11011;BME280;5558;42.702;23.178;2022-11-30T06:16:23;93898.53;;;2.43;100.00
11011;BME280;5558;42.702;23.178;2022-11-30T06:18:59;93900.06;;;2.50;100.00
11011;BME280;5558;42.702;23.178;2022-11-30T06:21:26;93881.06;;;2.37;100.00
11011;BME280;5558;42.702;23.178;2022-11-30T06:23:52;93900.06;;;2.50;100.00
11011;BME280;5558;42.702;23.178;2022-11-30T06:26:19;93915.47;;;2.65;100.00
11011;BME280;5558;42.702;23.178;2022-11-30T06:28:46;93911.69;;;2.61;100.00
11011;BME280;5558;42.702;23.178;2022-11-30T06:31:14;93915.88;;;2.69;100.00
11011;BME280;5558;42.702;23.178;2022-11-30T06:33:42;93907.69;;;2.59;100.00
11011;BME280;5558;42.702;23.178;2022-11-30T06:36:09;93912.50;;;2.62;100.00
11011;BME280;5558;42.702;23.178;2022-11-30T06:39:09;93913.25;;;2.69;100.00
11011;BME280;5558;42.702;23.178;2022-11-30T06:41:36;93913.47;;;2.67;100.00
11011;BME280;5558;42.702;23.178;2022-11-30T06:44:06;93908.09;;;2.56;100.00
11011;BME280;5558;42.702;23.178;2022-11-30T06:49:48;93899.91;;;2.45;100.00
11011;BME280;5558;42.702;23.178;2022-11-30T06:52:14;93903.53;;;2.44;100.00
11011;BME280;5558;42.702;23.178;2022-11-30T06:54:41;93894.84;;;2.50;100.00
11011;BME280;5558;42.702;23.178;2022-11-30T06:57:08;93893.22;;;2.56;100.00
11011;BME280;5558;42.702;23.178;2022-11-30T06:59:35;93897.97;;;2.66;100.00
11011;BME280;5558;42.702;23.178;2022-11-30T11:16:17;93788.25;;;3.69;100.00
11011;BME280;5558;42.702;23.178;2022-11-30T11:18:53;93783.47;;;3.66;100.00
11011;BME280;5558;42.702;23.178;2022-11-30T11:21:21;93778.44;;;3.64;100.00
11011;BME280;5558;42.702;23.178;2022-11-30T11:23:50;93794.44;;;3.74;100.00
11011;BME280;5558;42.702;23.178;2022-11-30T11:26:21;93814.56;;;3.74;100.00
11011;BME280;5558;42.702;23.178;2022-11-30T11:28:50;93809.09;;;3.75;100.00
11011;BME280;5558;42.702;23.178;2022-11-30T11:31:32;93801.38;;;3.81;100.00
11011;BME280;5558;42.702;23.178;2022-11-30T11:34:00;93798.44;;;3.77;100.00
11011;BME280;5558;42.702;23.178;2022-11-30T11:36:29;93801.38;;;3.81;100.00
11011;BME280;5558;42.702;23.178;2022-11-30T11:38:56;93785.91;;;3.79;100.00
11011;BME280;5558;42.702;23.178;2022-11-30T11:41:27;93790.88;;;3.87;100.00
11011;BME280;5558;42.702;23.178;2022-11-30T11:44:01;93796.66;;;3.89;100.00
11011;BME280;5558;42.702;23.178;2022-11-30T11:46:31;93782.22;;;3.87;100.00
11011;BME280;5558;42.702;23.178;2022-11-30T11:49:02;93757.66;;;3.69;100.00
11011;BME280;5558;42.702;23.178;2022-11-30T11:51:31;93783.16;;;3.92;100.00
11011;BME280;5558;42.702;23.178;2022-11-30T11:54:02;93791.41;;;4.07;100.00
11011;BME280;5558;42.702;23.178;2022-11-30T11:56:34;93797.91;;;4.16;100.00
11011;BME280;5558;42.702;23.178;2022-11-30T11:59:09;93797.19;;;4.27;100.00
11011;BME280;5558;42.702;23.178;2022-11-30T12:01:49;93801.78;;;4.43;100.00
11011;BME280;5558;42.702;23.178;2022-11-30T12:04:30;93802.84;;;4.54;100.00
11011;BME280;5558;42.702;23.178;2022-11-30T12:07:01;93806.84;;;4.56;100.00
11011;BME280;5558;42.702;23.178;2022-11-30T12:09:31;93805.69;;;4.52;100.00
11011;BME280;5558;42.702;23.178;2022-11-30T12:12:00;93812.50;;;4.53;100.00
11011;BME280;5558;42.702;23.178;2022-11-30T12:14:28;93818.44;;;4.49;100.00
11011;BME280;5558;42.702;23.178;2022-11-30T12:17:17;93811.84;;;4.46;100.00
11011;BME280;5558;42.702;23.178;2022-11-30T12:19:57;93797.13;;;4.45;100.00
11011;BME280;5558;42.702;23.178;2022-11-30T12:22:43;93803.13;;;4.34;100.00
11011;BME280;5558;42.702;23.178;2022-11-30T12:25:20;93804.72;;;4.35;100.00
11011;BME280;5558;42.702;23.178;2022-11-30T12:27:59;93803.13;;;4.34;100.00
11011;BME280;5558;42.702;23.178;2022-11-30T12:30:39;93813.72;;;4.28;100.00
11011;BME280;5558;42.702;23.178;2022-11-30T12:33:16;93802.38;;;4.16;100.00
11011;BME280;5558;42.702;23.178;2022-11-30T12:35:57;93807.25;;;4.12;100.00
11011;BME280;5558;42.702;23.178;2022-11-30T12:38:39;93812.59;;;4.06;100.00
11011;BME280;5558;42.702;23.178;2022-11-30T12:41:25;93806.63;;;3.99;100.00
11011;BME280;5558;42.702;23.178;2022-11-30T12:44:03;93809.59;;;4.02;100.00
11011;BME280;5558;42.702;23.178;2022-11-30T12:46:36;93815.63;;;4.03;100.00
11011;BME280;5558;42.702;23.178;2022-11-30T12:49:21;93809.34;;;3.92;100.00
11011;BME280;5558;42.702;23.178;2022-11-30T12:51:56;93820.66;;;3.86;100.00
11011;BME280;5558;42.702;23.178;2022-11-30T12:54:33;93818.72;;;3.82;100.00
11011;BME280;5558;42.702;23.178;2022-11-30T12:57:09;93812.66;;;3.81;100.00
11011;BME280;5558;42.702;23.178;2022-11-30T12:59:43;93819.66;;;3.69;100.00
11011;BME280;5558;42.702;23.178;2022-11-30T13:02:35;93819.88;;;3.67;100.00
11011;BME280;5558;42.702;23.178;2022-11-30T13:05:07;93813.81;;;3.67;100.00
11011;BME280;5558;42.702;23.178;2022-11-30T13:07:39;93819.72;;;3.62;100.00
11011;BME280;5558;42.702;23.178;2022-11-30T13:10:17;93816.97;;;3.57;100.00
11011;BME280;5558;42.702;23.178;2022-11-30T13:12:49;93822.19;;;3.57;100.00
11011;BME280;5558;42.702;23.178;2022-11-30T13:15:19;93829.47;;;3.55;100.00
11011;BME280;5558;42.702;23.178;2022-11-30T13:17:47;93827.06;;;3.54;100.00
11011;BME280;5558;42.702;23.178;2022-11-30T13:20:21;93821.59;;;3.55;100.00
11011;BME280;5558;42.702;23.178;2022-11-30T13:22:54;93827.06;;;3.54;100.00
11011;BME280;5558;42.702;23.178;2022-11-30T13:25:28;93834.91;;;3.54;100.00
11011;BME280;5558;42.702;23.178;2022-11-30T13:28:02;93831.50;;;3.53;100.00
11011;BME280;5558;42.702;23.178;2022-11-30T13:30:37;93821.09;;;3.47;100.00
11011;BME280;5558;42.702;23.178;2022-11-30T13:36:26;93810.16;;;3.56;100.00
11011;BME280;5558;42.702;23.178;2022-11-30T13:39:29;93808.97;;;3.52;100.00
11011;BME280;5558;42.702;23.178;2022-11-30T13:42:27;93808.44;;;3.44;100.00
11011;BME280;5558;42.702;23.178;2022-11-30T13:45:16;93803.50;;;3.36;100.00
11011;BME280;5558;42.702;23.178;2022-11-30T13:47:47;93815.63;;;3.30;100.00
11011;BME280;5558;42.702;23.178;2022-11-30T13:50:19;93812.44;;;3.28;100.00
11011;BME280;5558;42.702;23.178;2022-11-30T13:53:24;93815.03;;;3.28;100.00
11011;BME280;5558;42.702;23.178;2022-11-30T14:01:47;93806.69;;;3.20;100.00
11011;BME280;5558;42.702;23.178;2022-11-30T14:04:29;93802.41;;;3.25;100.00
11011;BME280;5558;42.702;23.178;2022-11-30T14:06:57;93783.09;;;3.26;100.00
11011;BME280;5558;42.702;23.178;2022-11-30T14:09:56;93791.94;;;3.25;100.00
11011;BME280;5558;42.702;23.178;2022-11-30T14:12:45;93798.44;;;3.41;100.00
11011;BME280;5558;42.702;23.178;2022-11-30T14:18:16;93787.66;;;3.31;100.00
11011;BME280;5558;42.702;23.178;2022-11-30T14:20:47;93783.25;;;3.31;100.00
11011;BME280;5558;42.702;23.178;2022-11-30T14:23:23;93790.66;;;3.34;100.00
11011;BME280;5558;42.702;23.178;2022-11-30T14:25:58;93792.84;;;3.37;100.00
11011;BME280;5558;42.702;23.178;2022-11-30T14:28:31;93789.03;;;3.33;100.00
11011;BME280;5558;42.702;23.178;2022-11-30T14:31:00;93788.88;;;3.28;100.00
11011;BME280;5558;42.702;23.178;2022-11-30T14:33:39;93790.28;;;3.31;100.00
11011;BME280;5558;42.702;23.178;2022-11-30T14:36:07;93793.72;;;3.31;100.00
11011;BME280;5558;42.702;23.178;2022-11-30T14:38:38;93790.97;;;3.20;100.00
11011;BME280;5558;42.702;23.178;2022-11-30T14:41:18;93805.69;;;3.21;100.00
11011;BME280;5558;42.702;23.178;2022-11-30T14:44:00;93799.19;;;3.23;100.00
11011;BME280;5558;42.702;23.178;2022-11-30T14:46:27;93806.53;;;3.15;100.00
11011;BME280;5558;42.702;23.178;2022-11-30T14:49:11;93812.56;;;3.15;100.00
11011;BME280;5558;42.702;23.178;2022-11-30T14:51:39;93805.16;;;3.12;100.00
11011;BME280;5558;42.702;23.178;2022-11-30T14:54:15;93801.78;;;3.05;100.00
11011;BME280;5558;42.702;23.178;2022-11-30T14:56:49;93807.09;;;2.99;100.00
11011;BME280;5558;42.702;23.178;2022-11-30T14:59:40;93811.22;;;3.06;100.00
11011;BME280;5558;42.702;23.178;2022-11-30T15:02:18;93813.44;;;3.09;100.00
11011;BME280;5558;42.702;23.178;2022-11-30T15:04:47;93818.28;;;3.06;100.00
11011;BME280;5558;42.702;23.178;2022-11-30T15:07:15;93816.44;;;3.06;100.00
11011;BME280;5558;42.702;23.178;2022-11-30T15:09:45;93808.66;;;3.00;100.00
11011;BME280;5558;42.702;23.178;2022-11-30T15:12:18;93814.50;;;3.02;100.00
11011;BME280;5558;42.702;23.178;2022-11-30T15:15:11;93830.50;;;3.12;100.00
11011;BME280;5558;42.702;23.178;2022-11-30T15:17:53;93829.84;;;3.16;100.00
11011;BME280;5558;42.702;23.178;2022-11-30T15:20:28;93831.16;;;3.25;100.00
11011;BME280;5558;42.702;23.178;2022-11-30T15:22:56;93841.84;;;3.24;100.00
11011;BME280;5558;42.702;23.178;2022-11-30T15:25:30;93833.88;;;3.37;100.00
11011;BME280;5558;42.702;23.178;2022-11-30T15:28:00;93828.72;;;3.30;100.00
11011;BME280;5558;42.702;23.178;2022-11-30T15:30:30;93825.72;;;3.27;100.00
11011;BME280;5558;42.702;23.178;2022-11-30T15:32:57;93824.56;;;3.23;100.00
11011;BME280;5558;42.702;23.178;2022-11-30T15:35:31;93831.44;;;3.17;100.00
11011;BME280;5558;42.702;23.178;2022-11-30T15:37:58;93841.16;;;3.10;100.00
11011;BME280;5558;42.702;23.178;2022-11-30T15:40:30;93840.34;;;3.10;100.00
11011;BME280;5558;42.702;23.178;2022-11-30T15:42:58;93833.00;;;3.00;100.00
11011;BME280;5558;42.702;23.178;2022-11-30T15:45:29;93835.91;;;2.92;100.00
11011;BME280;5558;42.702;23.178;2022-11-30T15:47:57;93838.34;;;2.87;100.00
11011;BME280;5558;42.702;23.178;2022-11-30T15:50:39;93836.84;;;2.98;100.00
11011;BME280;5558;42.702;23.178;2022-11-30T15:53:32;93835.41;;;3.02;100.00
11011;BME280;5558;42.702;23.178;2022-11-30T15:56:03;93840.41;;;3.03;100.00
11011;BME280;5558;42.702;23.178;2022-11-30T15:58:37;93840.25;;;2.98;100.00
11011;BME280;5558;42.702;23.178;2022-11-30T16:01:13;93845.09;;;2.95;100.00
11011;BME280;5558;42.702;23.178;2022-11-30T16:03:58;93842.94;;;2.92;100.00
11011;BME280;5558;42.702;23.178;2022-11-30T16:06:26;93839.28;;;2.93;100.00
11011;BME280;5558;42.702;23.178;2022-11-30T16:08:54;93846.13;;;2.94;100.00
11011;BME280;5558;42.702;23.178;2022-11-30T16:11:21;93853.16;;;2.93;100.00
11011;BME280;5558;42.702;23.178;2022-11-30T16:13:48;93855.41;;;2.90;100.00
11011;BME280;5558;42.702;23.178;2022-11-30T16:16:25;93848.44;;;2.84;100.00
11011;BME280;5558;42.702;23.178;2022-11-30T16:18:53;93854.66;;;2.83;100.00
11011;BME280;5558;42.702;23.178;2022-11-30T16:21:20;93846.84;;;2.76;100.00
11011;BME280;5558;42.702;23.178;2022-11-30T16:23:47;93849.03;;;2.86;100.00
11011;BME280;5558;42.702;23.178;2022-11-30T16:26:15;93843.63;;;2.81;100.00
11011;BME280;5558;42.702;23.178;2022-11-30T16:28:43;93848.81;;;2.87;100.00
11011;BME280;5558;42.702;23.178;2022-11-30T16:31:14;93847.72;;;2.95;100.00
11011;BME280;5558;42.702;23.178;2022-11-30T16:33:43;93857.97;;;2.96;100.00
11011;BME280;5558;42.702;23.178;2022-11-30T16:36:13;93855.34;;;2.96;100.00
11011;BME280;5558;42.702;23.178;2022-11-30T16:38:41;93852.19;;;2.88;100.00
11011;BME280;5558;42.702;23.178;2022-11-30T16:41:13;93848.75;;;2.94;100.00
11011;BME280;5558;42.702;23.178;2022-11-30T16:43:41;93852.53;;;2.98;100.00
11011;BME280;5558;42.702;23.178;2022-11-30T16:46:09;93849.75;;;2.93;100.00
11011;BME280;5558;42.702;23.178;2022-11-30T16:48:37;93846.72;;;2.96;100.00
11011;BME280;5558;42.702;23.178;2022-11-30T16:51:13;93853.53;;;2.97;100.00
11011;BME280;5558;42.702;23.178;2022-11-30T16:53:40;93850.34;;;2.95;100.00
11011;BME280;5558;42.702;23.178;2022-11-30T16:56:09;93846.88;;;3.01;100.00
11011;BME280;5558;42.702;23.178;2022-11-30T16:58:36;93839.03;;;3.01;100.00
11011;BME280;5558;42.702;23.178;2022-11-30T17:01:03;93841.88;;;2.99;100.00
11011;BME280;5558;42.702;23.178;2022-11-30T17:03:31;93815.50;;;2.76;100.00
11011;BME280;5558;42.702;23.178;2022-11-30T17:05:58;93856.31;;;3.02;100.00
11011;BME280;5558;42.702;23.178;2022-11-30T17:08:26;93848.09;;;2.98;100.00
11011;BME280;5558;42.702;23.178;2022-11-30T17:10:53;93852.72;;;2.96;100.00
11011;BME280;5558;42.702;23.178;2022-11-30T17:13:20;93843.91;;;2.97;100.00
11011;BME280;5558;42.702;23.178;2022-11-30T17:15:47;93850.06;;;3.03;100.00
11011;BME280;5558;42.702;23.178;2022-11-30T17:18:14;93844.13;;;2.96;100.00
11011;BME280;5558;42.702;23.178;2022-11-30T17:20:47;93849.56;;;2.94;100.00
11011;BME280;5558;42.702;23.178;2022-11-30T17:23:14;93850.50;;;3.00;100.00
11011;BME280;5558;42.702;23.178;2022-11-30T17:25:42;93863.56;;;3.00;100.00
11011;BME280;5558;42.702;23.178;2022-11-30T17:28:09;93858.28;;;3.06;100.00
11011;BME280;5558;42.702;23.178;2022-11-30T17:30:35;93857.34;;;3.01;100.00
11011;BME280;5558;42.702;23.178;2022-11-30T17:33:02;93856.66;;;2.87;100.00
11011;BME280;5558;42.702;23.178;2022-11-30T17:35:29;93856.81;;;2.92;100.00
11011;BME280;5558;42.702;23.178;2022-11-30T17:37:55;93849.78;;;2.86;100.00
11011;BME280;5558;42.702;23.178;2022-11-30T17:40:22;93859.84;;;2.89;100.00
11011;BME280;5558;42.702;23.178;2022-11-30T17:42:50;93855.25;;;2.85;100.00
11011;BME280;5558;42.702;23.178;2022-11-30T17:45:17;93856.66;;;2.87;100.00
11011;BME280;5558;42.702;23.178;2022-11-30T17:47:44;93864.88;;;2.84;100.00
11011;BME280;5558;42.702;23.178;2022-11-30T17:50:11;93856.25;;;2.84;100.00
11011;BME280;5558;42.702;23.178;2022-11-30T17:52:39;93850.81;;;2.85;100.00
11011;BME280;5558;42.702;23.178;2022-11-30T17:55:06;93866.56;;;2.79;100.00
11011;BME280;5558;42.702;23.178;2022-11-30T17:57:35;93863.94;;;2.79;100.00
11011;BME280;5558;42.702;23.178;2022-11-30T18:00:07;93861.56;;;2.71;100.00
11011;BME280;5558;42.702;23.178;2022-11-30T18:02:34;93860.56;;;2.72;100.00
11011;BME280;5558;42.702;23.178;2022-11-30T18:05:01;93862.09;;;2.79;100.00
11011;BME280;5558;42.702;23.178;2022-11-30T18:07:28;93860.91;;;2.82;100.00
11011;BME280;5558;42.702;23.178;2022-11-30T18:09:54;93863.34;;;2.77;100.00
11011;BME280;5558;42.702;23.178;2022-11-30T18:12:22;93871.06;;;2.65;100.00
11011;BME280;5558;42.702;23.178;2022-11-30T18:14:48;93858.78;;;2.66;100.00
11011;BME280;5558;42.702;23.178;2022-11-30T18:17:17;93861.66;;;2.58;100.00
11011;BME280;5558;42.702;23.178;2022-11-30T18:19:43;93870.63;;;2.68;100.00
11011;BME280;5558;42.702;23.178;2022-11-30T18:22:10;93872.66;;;2.66;100.00
11011;BME280;5558;42.702;23.178;2022-11-30T18:24:37;93867.84;;;2.63;100.00
11011;BME280;5558;42.702;23.178;2022-11-30T18:27:03;93864.88;;;2.60;100.00
11011;BME280;5558;42.702;23.178;2022-11-30T18:29:30;93860.88;;;2.57;100.00